sensor_id;sensor_type;location;lat;lon;timestamp;temperature;humidity
38568;DHT22;24338;48.280;10.970;2023-03-14T00:01:12;9.60;99.90
38568;DHT22;24338;48.280;10.970;2023-03-14T00:03:39;9.60;99.90
38568;DHT22;24338;48.280;10.970;2023-03-14T00:06:06;9.60;99.90
38568;DHT22;24338;48.280;10.970;2023-03-14T00:08:34;9.50;99.90
38568;DHT22;24338;48.280;10.970;2023-03-14T00:11:06;9.50;99.90
38568;DHT22;24338;48.280;10.970;2023-03-14T00:13:33;9.50;99.90
38568;DHT22;24338;48.280;10.970;2023-03-14T00:16:08;9.50;99.90
38568;DHT22;24338;48.280;10.970;2023-03-14T00:18:35;9.40;99.90
38568;DHT22;24338;48.280;10.970;2023-03-14T00:21:04;9.40;99.90
38568;DHT22;24338;48.280;10.970;2023-03-14T00:23:32;9.40;99.90
38568;DHT22;24338;48.280;10.970;2023-03-14T00:26:01;9.40;99.90
38568;DHT22;24338;48.280;10.970;2023-03-14T00:28:28;9.40;99.90
38568;DHT22;24338;48.280;10.970;2023-03-14T00:30:55;9.30;99.90
38568;DHT22;24338;48.280;10.970;2023-03-14T00:33:23;9.30;99.90
38568;DHT22;24338;48.280;10.970;2023-03-14T00:35:54;9.30;99.90
38568;DHT22;24338;48.280;10.970;2023-03-14T00:38:21;9.30;99.90
38568;DHT22;24338;48.280;10.970;2023-03-14T00:40:48;9.30;99.90
38568;DHT22;24338;48.280;10.970;2023-03-14T00:43:15;9.40;99.90
38568;DHT22;24338;48.280;10.970;2023-03-14T00:45:41;9.50;99.90
38568;DHT22;24338;48.280;10.970;2023-03-14T00:48:08;9.50;99.90
38568;DHT22;24338;48.280;10.970;2023-03-14T00:50:35;9.50;99.90
38568;DHT22;24338;48.280;10.970;2023-03-14T00:53:02;9.50;99.90
38568;DHT22;24338;48.280;10.970;2023-03-14T00:55:29;9.50;99.90
38568;DHT22;24338;48.280;10.970;2023-03-14T00:57:56;9.50;99.90
38568;DHT22;24338;48.280;10.970;2023-03-14T01:00:22;9.50;99.90
38568;DHT22;24338;48.280;10.970;2023-03-14T01:02:50;9.50;99.90
38568;DHT22;24338;48.280;10.970;2023-03-14T01:05:17;9.50;99.90
38568;DHT22;24338;48.280;10.970;2023-03-14T01:07:43;9.40;99.90
38568;DHT22;24338;48.280;10.970;2023-03-14T01:10:10;9.30;99.90
38568;DHT22;24338;48.280;10.970;2023-03-14T01:12:37;9.30;99.90
38568;DHT22;24338;48.280;10.970;2023-03-14T01:15:04;9.20;99.90
38568;DHT22;24338;48.280;10.970;2023-03-14T01:17:31;9.20;99.90
38568;DHT22;24338;48.280;10.970;2023-03-14T01:19:59;9.10;99.90
38568;DHT22;24338;48.280;10.970;2023-03-14T01:22:26;9.10;99.90
38568;DHT22;24338;48.280;10.970;2023-03-14T01:24:53;9.00;99.90
38568;DHT22;24338;48.280;10.970;2023-03-14T01:27:20;8.90;99.90
38568;DHT22;24338;48.280;10.970;2023-03-14T01:29:47;8.90;99.90
38568;DHT22;24338;48.280;10.970;2023-03-14T01:32:14;8.80;99.90
38568;DHT22;24338;48.280;10.970;2023-03-14T01:34:41;8.80;99.90
38568;DHT22;24338;48.280;10.970;2023-03-14T01:37:07;8.70;99.90
38568;DHT22;24338;48.280;10.970;2023-03-14T01:39:34;8.60;99.90
38568;DHT22;24338;48.280;10.970;2023-03-14T01:42:01;8.60;99.90
38568;DHT22;24338;48.280;10.970;2023-03-14T01:44:28;8.60;99.90
38568;DHT22;24338;48.280;10.970;2023-03-14T01:46:55;8.50;99.90
38568;DHT22;24338;48.280;10.970;2023-03-14T01:49:26;8.50;99.90
38568;DHT22;24338;48.280;10.970;2023-03-14T01:54:37;8.50;99.90
38568;DHT22;24338;48.280;10.970;2023-03-14T01:57:13;8.50;99.90
38568;DHT22;24338;48.280;10.970;2023-03-14T01:59:45;8.40;99.90
38568;DHT22;24338;48.280;10.970;2023-03-14T02:02:13;8.40;99.90
38568;DHT22;24338;48.280;10.970;2023-03-14T02:04:42;8.40;99.90
38568;DHT22;24338;48.280;10.970;2023-03-14T02:07:19;8.30;99.90
38568;DHT22;24338;48.280;10.970;2023-03-14T02:09:48;8.30;99.90
38568;DHT22;24338;48.280;10.970;2023-03-14T02:12:16;8.30;99.90
38568;DHT22;24338;48.280;10.970;2023-03-14T02:14:44;8.30;99.90
38568;DHT22;24338;48.280;10.970;2023-03-14T02:17:16;8.20;99.90
38568;DHT22;24338;48.280;10.970;2023-03-14T02:22:22;8.20;99.90
38568;DHT22;24338;48.280;10.970;2023-03-14T02:27:31;8.20;99.90
38568;DHT22;24338;48.280;10.970;2023-03-14T02:30:02;8.10;99.90
38568;DHT22;24338;48.280;10.970;2023-03-14T02:32:32;8.20;99.90
38568;DHT22;24338;48.280;10.970;2023-03-14T02:35:05;8.10;99.90
38568;DHT22;24338;48.280;10.970;2023-03-14T02:37:38;8.10;99.90
38568;DHT22;24338;48.280;10.970;2023-03-14T02:40:08;8.20;99.90
38568;DHT22;24338;48.280;10.970;2023-03-14T02:42:35;8.20;99.90
38568;DHT22;24338;48.280;10.970;2023-03-14T02:47:36;8.20;99.90
38568;DHT22;24338;48.280;10.970;2023-03-14T02:50:13;8.20;99.90
38568;DHT22;24338;48.280;10.970;2023-03-14T02:52:42;8.20;99.90
38568;DHT22;24338;48.280;10.970;2023-03-14T02:55:09;8.20;99.90
38568;DHT22;24338;48.280;10.970;2023-03-14T02:57:36;8.20;99.90
38568;DHT22;24338;48.280;10.970;2023-03-14T03:00:04;8.20;99.90
38568;DHT22;24338;48.280;10.970;2023-03-14T03:02:32;8.20;99.90
38568;DHT22;24338;48.280;10.970;2023-03-14T03:04:58;8.20;99.90
38568;DHT22;24338;48.280;10.970;2023-03-14T03:07:25;8.20;99.90
38568;DHT22;24338;48.280;10.970;2023-03-14T03:09:52;8.20;99.90
38568;DHT22;24338;48.280;10.970;2023-03-14T03:12:19;8.20;99.90
38568;DHT22;24338;48.280;10.970;2023-03-14T03:14:46;8.20;99.90
38568;DHT22;24338;48.280;10.970;2023-03-14T03:17:12;8.20;99.90
38568;DHT22;24338;48.280;10.970;2023-03-14T03:19:39;8.20;99.90
38568;DHT22;24338;48.280;10.970;2023-03-14T03:22:07;8.20;99.90
38568;DHT22;24338;48.280;10.970;2023-03-14T03:24:34;8.20;99.90
38568;DHT22;24338;48.280;10.970;2023-03-14T03:27:00;8.20;99.90
38568;DHT22;24338;48.280;10.970;2023-03-14T03:29:27;8.20;99.90
38568;DHT22;24338;48.280;10.970;2023-03-14T03:31:54;8.20;99.90
38568;DHT22;24338;48.280;10.970;2023-03-14T03:34:21;8.20;99.90
38568;DHT22;24338;48.280;10.970;2023-03-14T03:36:48;8.20;99.90
38568;DHT22;24338;48.280;10.970;2023-03-14T03:39:14;8.20;99.90
38568;DHT22;24338;48.280;10.970;2023-03-14T03:41:41;8.20;99.90
38568;DHT22;24338;48.280;10.970;2023-03-14T03:44:08;8.20;99.90
38568;DHT22;24338;48.280;10.970;2023-03-14T03:46:35;8.20;99.90
38568;DHT22;24338;48.280;10.970;2023-03-14T03:49:01;8.20;99.90
38568;DHT22;24338;48.280;10.970;2023-03-14T03:51:28;8.20;99.90
38568;DHT22;24338;48.280;10.970;2023-03-14T03:53:56;8.20;99.90
38568;DHT22;24338;48.280;10.970;2023-03-14T03:56:23;8.20;99.90
38568;DHT22;24338;48.280;10.970;2023-03-14T03:58:50;8.20;99.90
38568;DHT22;24338;48.280;10.970;2023-03-14T04:01:18;8.10;99.90
38568;DHT22;24338;48.280;10.970;2023-03-14T04:03:45;8.10;99.90
38568;DHT22;24338;48.280;10.970;2023-03-14T04:06:13;8.10;99.90
38568;DHT22;24338;48.280;10.970;2023-03-14T04:08:40;8.00;99.90
38568;DHT22;24338;48.280;10.970;2023-03-14T04:11:07;8.00;99.90
38568;DHT22;24338;48.280;10.970;2023-03-14T04:13:34;8.00;99.90
38568;DHT22;24338;48.280;10.970;2023-03-14T04:16:01;8.00;99.90
38568;DHT22;24338;48.280;10.970;2023-03-14T04:18:28;7.90;99.90
38568;DHT22;24338;48.280;10.970;2023-03-14T04:20:57;8.00;99.90
38568;DHT22;24338;48.280;10.970;2023-03-14T04:23:25;8.00;99.90
38568;DHT22;24338;48.280;10.970;2023-03-14T04:25:53;7.90;99.90
38568;DHT22;24338;48.280;10.970;2023-03-14T04:28:20;7.90;99.90
38568;DHT22;24338;48.280;10.970;2023-03-14T04:30:47;7.90;99.90
38568;DHT22;24338;48.280;10.970;2023-03-14T04:33:13;7.90;99.90
38568;DHT22;24338;48.280;10.970;2023-03-14T04:35:44;7.90;99.90
38568;DHT22;24338;48.280;10.970;2023-03-14T04:38:12;7.90;99.90
38568;DHT22;24338;48.280;10.970;2023-03-14T04:40:40;8.00;99.90
38568;DHT22;24338;48.280;10.970;2023-03-14T04:43:08;8.00;99.90
38568;DHT22;24338;48.280;10.970;2023-03-14T04:45:36;8.00;99.90
38568;DHT22;24338;48.280;10.970;2023-03-14T04:48:03;8.00;99.90
38568;DHT22;24338;48.280;10.970;2023-03-14T04:50:29;8.00;99.90
38568;DHT22;24338;48.280;10.970;2023-03-14T04:52:56;8.00;99.90
38568;DHT22;24338;48.280;10.970;2023-03-14T04:55:23;8.00;99.90
38568;DHT22;24338;48.280;10.970;2023-03-14T04:57:50;8.00;99.90
38568;DHT22;24338;48.280;10.970;2023-03-14T05:00:17;8.00;99.90
38568;DHT22;24338;48.280;10.970;2023-03-14T05:05:20;7.90;99.90
38568;DHT22;24338;48.280;10.970;2023-03-14T05:07:47;8.00;99.90
38568;DHT22;24338;48.280;10.970;2023-03-14T05:10:13;7.90;99.90
38568;DHT22;24338;48.280;10.970;2023-03-14T05:12:40;8.00;99.90
38568;DHT22;24338;48.280;10.970;2023-03-14T05:15:08;7.90;99.90
38568;DHT22;24338;48.280;10.970;2023-03-14T05:17:35;7.90;99.90
38568;DHT22;24338;48.280;10.970;2023-03-14T05:20:03;7.90;99.90
38568;DHT22;24338;48.280;10.970;2023-03-14T05:22:35;7.90;99.90
38568;DHT22;24338;48.280;10.970;2023-03-14T05:25:02;7.90;99.90
38568;DHT22;24338;48.280;10.970;2023-03-14T05:27:31;7.80;99.90
38568;DHT22;24338;48.280;10.970;2023-03-14T05:29:58;7.80;99.90
38568;DHT22;24338;48.280;10.970;2023-03-14T05:32:25;7.80;99.90
38568;DHT22;24338;48.280;10.970;2023-03-14T05:34:51;7.80;99.90
38568;DHT22;24338;48.280;10.970;2023-03-14T05:37:19;7.80;99.90
38568;DHT22;24338;48.280;10.970;2023-03-14T05:39:45;7.80;99.90
38568;DHT22;24338;48.280;10.970;2023-03-14T05:42:12;7.80;99.90
38568;DHT22;24338;48.280;10.970;2023-03-14T05:44:39;7.70;99.90
38568;DHT22;24338;48.280;10.970;2023-03-14T05:47:06;7.70;99.90
38568;DHT22;24338;48.280;10.970;2023-03-14T05:49:33;7.70;99.90
38568;DHT22;24338;48.280;10.970;2023-03-14T05:52:00;7.70;99.90
38568;DHT22;24338;48.280;10.970;2023-03-14T05:54:26;7.70;99.90
38568;DHT22;24338;48.280;10.970;2023-03-14T05:56:53;7.70;99.90
38568;DHT22;24338;48.280;10.970;2023-03-14T05:59:20;7.60;99.90
38568;DHT22;24338;48.280;10.970;2023-03-14T06:01:47;7.70;99.90
38568;DHT22;24338;48.280;10.970;2023-03-14T06:04:14;7.70;99.90
38568;DHT22;24338;48.280;10.970;2023-03-14T06:06:41;7.60;99.90
38568;DHT22;24338;48.280;10.970;2023-03-14T06:09:08;7.60;99.90
38568;DHT22;24338;48.280;10.970;2023-03-14T06:11:34;7.60;99.90
38568;DHT22;24338;48.280;10.970;2023-03-14T06:14:01;7.70;99.90
38568;DHT22;24338;48.280;10.970;2023-03-14T06:16:28;7.80;99.90
38568;DHT22;24338;48.280;10.970;2023-03-14T06:18:55;7.80;99.90
38568;DHT22;24338;48.280;10.970;2023-03-14T06:21:22;7.80;99.90
38568;DHT22;24338;48.280;10.970;2023-03-14T06:23:49;7.80;99.90
38568;DHT22;24338;48.280;10.970;2023-03-14T06:26:16;7.80;99.90
38568;DHT22;24338;48.280;10.970;2023-03-14T06:28:42;7.80;99.90
38568;DHT22;24338;48.280;10.970;2023-03-14T06:31:09;7.80;99.90
38568;DHT22;24338;48.280;10.970;2023-03-14T06:33:36;7.80;99.90
38568;DHT22;24338;48.280;10.970;2023-03-14T06:36:03;7.80;99.90
38568;DHT22;24338;48.280;10.970;2023-03-14T06:38:30;7.90;99.90
38568;DHT22;24338;48.280;10.970;2023-03-14T06:41:03;7.90;99.90
38568;DHT22;24338;48.280;10.970;2023-03-14T06:43:30;7.90;99.90
38568;DHT22;24338;48.280;10.970;2023-03-14T06:45:57;7.90;99.90
38568;DHT22;24338;48.280;10.970;2023-03-14T06:48:24;7.90;99.90
38568;DHT22;24338;48.280;10.970;2023-03-14T06:50:50;7.90;99.90
38568;DHT22;24338;48.280;10.970;2023-03-14T06:53:17;7.90;99.90
38568;DHT22;24338;48.280;10.970;2023-03-14T06:55:44;7.90;99.90
38568;DHT22;24338;48.280;10.970;2023-03-14T06:58:12;7.90;99.90
38568;DHT22;24338;48.280;10.970;2023-03-14T07:00:39;7.90;99.90
38568;DHT22;24338;48.280;10.970;2023-03-14T07:03:06;7.90;99.90
38568;DHT22;24338;48.280;10.970;2023-03-14T07:05:32;8.00;99.90
38568;DHT22;24338;48.280;10.970;2023-03-14T07:07:59;8.00;99.90
38568;DHT22;24338;48.280;10.970;2023-03-14T07:10:26;8.00;99.90
38568;DHT22;24338;48.280;10.970;2023-03-14T07:12:53;8.00;99.90
38568;DHT22;24338;48.280;10.970;2023-03-14T07:15:20;8.00;99.90
38568;DHT22;24338;48.280;10.970;2023-03-14T07:17:47;8.00;99.90
38568;DHT22;24338;48.280;10.970;2023-03-14T07:20:15;8.10;99.90
38568;DHT22;24338;48.280;10.970;2023-03-14T07:22:42;8.10;99.90
38568;DHT22;24338;48.280;10.970;2023-03-14T07:25:09;8.10;99.90
38568;DHT22;24338;48.280;10.970;2023-03-14T07:27:38;8.10;99.90
38568;DHT22;24338;48.280;10.970;2023-03-14T07:30:06;8.10;99.90
38568;DHT22;24338;48.280;10.970;2023-03-14T07:32:33;8.20;99.90
38568;DHT22;24338;48.280;10.970;2023-03-14T07:34:59;8.20;99.90
38568;DHT22;24338;48.280;10.970;2023-03-14T07:37:26;8.30;99.90
38568;DHT22;24338;48.280;10.970;2023-03-14T07:39:53;8.30;99.90
38568;DHT22;24338;48.280;10.970;2023-03-14T07:42:20;8.30;99.90
38568;DHT22;24338;48.280;10.970;2023-03-14T07:44:47;8.30;99.90
38568;DHT22;24338;48.280;10.970;2023-03-14T07:47:14;8.40;99.90
38568;DHT22;24338;48.280;10.970;2023-03-14T07:49:40;8.50;99.90
38568;DHT22;24338;48.280;10.970;2023-03-14T07:52:07;8.50;99.90
38568;DHT22;24338;48.280;10.970;2023-03-14T07:54:34;8.50;99.90
38568;DHT22;24338;48.280;10.970;2023-03-14T07:57:01;8.60;99.90
38568;DHT22;24338;48.280;10.970;2023-03-14T07:59:28;8.60;99.90
38568;DHT22;24338;48.280;10.970;2023-03-14T08:01:54;8.70;99.90
38568;DHT22;24338;48.280;10.970;2023-03-14T08:04:21;8.70;99.90
38568;DHT22;24338;48.280;10.970;2023-03-14T08:06:48;8.70;99.90
38568;DHT22;24338;48.280;10.970;2023-03-14T08:09:15;8.80;99.90
38568;DHT22;24338;48.280;10.970;2023-03-14T08:11:42;8.80;99.90
38568;DHT22;24338;48.280;10.970;2023-03-14T08:14:08;8.90;99.90
38568;DHT22;24338;48.280;10.970;2023-03-14T08:16:37;8.90;99.90
38568;DHT22;24338;48.280;10.970;2023-03-14T08:19:04;8.90;99.90
38568;DHT22;24338;48.280;10.970;2023-03-14T08:21:31;8.90;99.90
38568;DHT22;24338;48.280;10.970;2023-03-14T08:23:57;8.90;99.90
38568;DHT22;24338;48.280;10.970;2023-03-14T08:26:24;9.00;99.90
38568;DHT22;24338;48.280;10.970;2023-03-14T08:28:51;9.00;99.90
38568;DHT22;24338;48.280;10.970;2023-03-14T08:31:18;9.00;99.90
38568;DHT22;24338;48.280;10.970;2023-03-14T08:33:45;9.10;99.90
38568;DHT22;24338;48.280;10.970;2023-03-14T08:36:12;9.20;99.90
38568;DHT22;24338;48.280;10.970;2023-03-14T08:38:39;9.20;99.90
38568;DHT22;24338;48.280;10.970;2023-03-14T08:41:09;9.30;99.90
38568;DHT22;24338;48.280;10.970;2023-03-14T08:43:36;9.40;99.90
38568;DHT22;24338;48.280;10.970;2023-03-14T08:46:03;9.50;99.90
38568;DHT22;24338;48.280;10.970;2023-03-14T08:48:30;9.50;99.90
38568;DHT22;24338;48.280;10.970;2023-03-14T08:51:07;9.60;99.90
38568;DHT22;24338;48.280;10.970;2023-03-14T08:53:34;9.60;99.90
38568;DHT22;24338;48.280;10.970;2023-03-14T08:56:01;9.70;99.90
38568;DHT22;24338;48.280;10.970;2023-03-14T08:58:28;9.80;99.90
38568;DHT22;24338;48.280;10.970;2023-03-14T09:00:56;10.00;99.90
38568;DHT22;24338;48.280;10.970;2023-03-14T09:03:24;10.10;99.90
38568;DHT22;24338;48.280;10.970;2023-03-14T09:05:51;10.10;99.90
38568;DHT22;24338;48.280;10.970;2023-03-14T09:08:18;10.20;99.90
38568;DHT22;24338;48.280;10.970;2023-03-14T09:10:45;10.30;99.90
38568;DHT22;24338;48.280;10.970;2023-03-14T09:13:12;10.30;99.90
38568;DHT22;24338;48.280;10.970;2023-03-14T09:15:39;10.40;99.90
38568;DHT22;24338;48.280;10.970;2023-03-14T09:18:06;10.50;99.90
38568;DHT22;24338;48.280;10.970;2023-03-14T09:20:33;10.60;99.90
38568;DHT22;24338;48.280;10.970;2023-03-14T09:22:59;10.70;99.90
38568;DHT22;24338;48.280;10.970;2023-03-14T09:25:26;10.70;99.90
38568;DHT22;24338;48.280;10.970;2023-03-14T09:27:53;10.80;99.90
38568;DHT22;24338;48.280;10.970;2023-03-14T09:30:20;10.80;99.90
38568;DHT22;24338;48.280;10.970;2023-03-14T09:32:47;10.80;99.90
38568;DHT22;24338;48.280;10.970;2023-03-14T09:35:14;10.90;99.90
38568;DHT22;24338;48.280;10.970;2023-03-14T09:37:40;11.00;99.90
38568;DHT22;24338;48.280;10.970;2023-03-14T09:40:15;11.20;99.90
38568;DHT22;24338;48.280;10.970;2023-03-14T09:42:42;11.30;99.90
38568;DHT22;24338;48.280;10.970;2023-03-14T09:45:17;11.40;99.90
38568;DHT22;24338;48.280;10.970;2023-03-14T09:47:47;11.40;99.90
38568;DHT22;24338;48.280;10.970;2023-03-14T09:50:26;11.40;99.90
38568;DHT22;24338;48.280;10.970;2023-03-14T09:53:02;11.50;99.90
38568;DHT22;24338;48.280;10.970;2023-03-14T09:55:29;11.50;99.90
38568;DHT22;24338;48.280;10.970;2023-03-14T09:58:02;11.70;99.90
38568;DHT22;24338;48.280;10.970;2023-03-14T10:00:30;11.80;99.90
38568;DHT22;24338;48.280;10.970;2023-03-14T10:03:14;11.90;99.90
38568;DHT22;24338;48.280;10.970;2023-03-14T10:05:46;11.90;99.90
38568;DHT22;24338;48.280;10.970;2023-03-14T10:08:13;11.90;99.90
38568;DHT22;24338;48.280;10.970;2023-03-14T10:10:41;11.90;99.90
38568;DHT22;24338;48.280;10.970;2023-03-14T10:13:15;11.80;99.90
38568;DHT22;24338;48.280;10.970;2023-03-14T10:15:52;11.80;99.90
38568;DHT22;24338;48.280;10.970;2023-03-14T10:18:19;11.80;99.90
38568;DHT22;24338;48.280;10.970;2023-03-14T10:20:48;11.80;99.90
38568;DHT22;24338;48.280;10.970;2023-03-14T10:30:56;12.30;99.90
38568;DHT22;24338;48.280;10.970;2023-03-14T10:33:30;12.30;99.90
38568;DHT22;24338;48.280;10.970;2023-03-14T10:38:33;12.50;99.90
38568;DHT22;24338;48.280;10.970;2023-03-14T10:41:01;12.40;99.90
38568;DHT22;24338;48.280;10.970;2023-03-14T10:43:32;12.50;99.90
38568;DHT22;24338;48.280;10.970;2023-03-14T10:46:09;12.60;99.90
38568;DHT22;24338;48.280;10.970;2023-03-14T10:48:39;12.60;99.90
38568;DHT22;24338;48.280;10.970;2023-03-14T10:53:47;12.50;99.90
38568;DHT22;24338;48.280;10.970;2023-03-14T10:56:16;12.60;99.90
38568;DHT22;24338;48.280;10.970;2023-03-14T10:58:46;12.60;99.90
38568;DHT22;24338;48.280;10.970;2023-03-14T11:03:57;12.60;99.90
38568;DHT22;24338;48.280;10.970;2023-03-14T11:09:04;12.40;99.90
38568;DHT22;24338;48.280;10.970;2023-03-14T11:11:32;12.30;99.90
38568;DHT22;24338;48.280;10.970;2023-03-14T11:20:02;12.20;99.90
38568;DHT22;24338;48.280;10.970;2023-03-14T11:22:47;12.10;99.90
38568;DHT22;24338;48.280;10.970;2023-03-14T11:25:26;12.10;99.90
38568;DHT22;24338;48.280;10.970;2023-03-14T11:30:48;12.30;99.90
38568;DHT22;24338;48.280;10.970;2023-03-14T11:36:21;12.30;99.90
38568;DHT22;24338;48.280;10.970;2023-03-14T11:38:58;12.30;99.90
38568;DHT22;24338;48.280;10.970;2023-03-14T11:41:32;12.40;99.90
38568;DHT22;24338;48.280;10.970;2023-03-14T11:44:04;12.30;99.90
38568;DHT22;24338;48.280;10.970;2023-03-14T11:46:41;12.30;99.90
38568;DHT22;24338;48.280;10.970;2023-03-14T11:52:27;12.20;99.90
38568;DHT22;24338;48.280;10.970;2023-03-14T11:55:22;12.10;99.90
38568;DHT22;24338;48.280;10.970;2023-03-14T11:57:58;12.10;99.90
38568;DHT22;24338;48.280;10.970;2023-03-14T12:00:26;12.00;99.90
38568;DHT22;24338;48.280;10.970;2023-03-14T12:03:54;12.20;99.90
38568;DHT22;24338;48.280;10.970;2023-03-14T12:06:28;12.50;99.90
38568;DHT22;24338;48.280;10.970;2023-03-14T12:09:02;12.50;99.90
38568;DHT22;24338;48.280;10.970;2023-03-14T12:16:50;12.10;99.90
38568;DHT22;24338;48.280;10.970;2023-03-14T12:24:35;11.80;99.90
38568;DHT22;24338;48.280;10.970;2023-03-14T12:27:04;11.90;99.90
38568;DHT22;24338;48.280;10.970;2023-03-14T12:29:31;12.00;99.90
38568;DHT22;24338;48.280;10.970;2023-03-14T12:34:32;12.00;99.90
38568;DHT22;24338;48.280;10.970;2023-03-14T12:42:40;11.90;99.90
38568;DHT22;24338;48.280;10.970;2023-03-14T12:45:29;11.60;99.90
38568;DHT22;24338;48.280;10.970;2023-03-14T12:50:44;11.40;99.90
38568;DHT22;24338;48.280;10.970;2023-03-14T13:01:33;11.00;99.90
38568;DHT22;24338;48.280;10.970;2023-03-14T13:04:08;11.00;99.90
38568;DHT22;24338;48.280;10.970;2023-03-14T13:06:52;10.70;99.90
38568;DHT22;24338;48.280;10.970;2023-03-14T13:12:11;10.50;99.90
38568;DHT22;24338;48.280;10.970;2023-03-14T13:14:44;10.80;99.90
38568;DHT22;24338;48.280;10.970;2023-03-14T13:17:15;10.80;99.90
38568;DHT22;24338;48.280;10.970;2023-03-14T13:20:11;10.60;99.90
38568;DHT22;24338;48.280;10.970;2023-03-14T13:22:39;10.50;99.90
38568;DHT22;24338;48.280;10.970;2023-03-14T13:25:11;10.30;99.90
38568;DHT22;24338;48.280;10.970;2023-03-14T13:27:38;10.20;99.90
38568;DHT22;24338;48.280;10.970;2023-03-14T13:32:44;10.10;99.90
38568;DHT22;24338;48.280;10.970;2023-03-14T13:35:23;10.00;99.90
38568;DHT22;24338;48.280;10.970;2023-03-14T13:37:58;9.80;99.90
38568;DHT22;24338;48.280;10.970;2023-03-14T13:40:43;9.60;99.90
38568;DHT22;24338;48.280;10.970;2023-03-14T13:46:21;9.50;99.90
38568;DHT22;24338;48.280;10.970;2023-03-14T13:48:53;9.40;99.90
38568;DHT22;24338;48.280;10.970;2023-03-14T13:51:21;9.20;99.90
38568;DHT22;24338;48.280;10.970;2023-03-14T13:53:51;9.10;99.90
38568;DHT22;24338;48.280;10.970;2023-03-14T13:56:19;8.90;99.90
38568;DHT22;24338;48.280;10.970;2023-03-14T13:58:46;8.80;99.90
38568;DHT22;24338;48.280;10.970;2023-03-14T14:01:39;8.60;99.90
38568;DHT22;24338;48.280;10.970;2023-03-14T14:04:14;8.40;99.90
38568;DHT22;24338;48.280;10.970;2023-03-14T14:07:13;8.30;99.90
38568;DHT22;24338;48.280;10.970;2023-03-14T14:09:47;8.30;99.90
38568;DHT22;24338;48.280;10.970;2023-03-14T14:12:17;8.40;99.90
38568;DHT22;24338;48.280;10.970;2023-03-14T14:15:12;8.40;99.90
38568;DHT22;24338;48.280;10.970;2023-03-14T14:17:44;8.30;99.90
38568;DHT22;24338;48.280;10.970;2023-03-14T14:20:36;8.20;99.90
38568;DHT22;24338;48.280;10.970;2023-03-14T14:23:18;8.10;99.90
38568;DHT22;24338;48.280;10.970;2023-03-14T14:25:48;8.10;99.90
38568;DHT22;24338;48.280;10.970;2023-03-14T14:28:25;8.00;99.90
38568;DHT22;24338;48.280;10.970;2023-03-14T14:33:28;8.10;99.90
38568;DHT22;24338;48.280;10.970;2023-03-14T14:35:59;8.20;99.90
38568;DHT22;24338;48.280;10.970;2023-03-14T14:38:27;8.10;99.90
38568;DHT22;24338;48.280;10.970;2023-03-14T14:40:59;8.10;99.90
38568;DHT22;24338;48.280;10.970;2023-03-14T14:43:27;8.10;99.90
38568;DHT22;24338;48.280;10.970;2023-03-14T14:45:55;8.10;99.90
38568;DHT22;24338;48.280;10.970;2023-03-14T14:48:26;7.90;99.90
38568;DHT22;24338;48.280;10.970;2023-03-14T14:51:02;7.60;99.90
38568;DHT22;24338;48.280;10.970;2023-03-14T14:56:26;7.30;99.90
38568;DHT22;24338;48.280;10.970;2023-03-14T14:59:01;7.20;99.90
38568;DHT22;24338;48.280;10.970;2023-03-14T15:01:34;7.20;99.90
38568;DHT22;24338;48.280;10.970;2023-03-14T15:04:01;7.20;99.90
38568;DHT22;24338;48.280;10.970;2023-03-14T15:06:30;7.30;99.90
38568;DHT22;24338;48.280;10.970;2023-03-14T15:08:58;7.30;99.90
38568;DHT22;24338;48.280;10.970;2023-03-14T15:11:26;7.50;99.90
38568;DHT22;24338;48.280;10.970;2023-03-14T15:13:53;7.70;99.90
38568;DHT22;24338;48.280;10.970;2023-03-14T15:16:28;7.90;99.90
38568;DHT22;24338;48.280;10.970;2023-03-14T15:18:57;8.00;99.90
38568;DHT22;24338;48.280;10.970;2023-03-14T15:21:26;8.10;99.90
38568;DHT22;24338;48.280;10.970;2023-03-14T15:23:54;8.10;99.90
38568;DHT22;24338;48.280;10.970;2023-03-14T15:26:26;8.10;99.90
38568;DHT22;24338;48.280;10.970;2023-03-14T15:28:53;8.10;99.90
38568;DHT22;24338;48.280;10.970;2023-03-14T15:31:20;8.10;99.90
38568;DHT22;24338;48.280;10.970;2023-03-14T15:33:50;8.20;99.90
38568;DHT22;24338;48.280;10.970;2023-03-14T15:36:28;8.40;99.90
38568;DHT22;24338;48.280;10.970;2023-03-14T15:38:57;8.40;99.90
38568;DHT22;24338;48.280;10.970;2023-03-14T15:41:26;8.40;99.90
38568;DHT22;24338;48.280;10.970;2023-03-14T15:43:54;8.40;99.90
38568;DHT22;24338;48.280;10.970;2023-03-14T15:46:21;8.30;99.90
38568;DHT22;24338;48.280;10.970;2023-03-14T15:48:50;8.10;99.90
38568;DHT22;24338;48.280;10.970;2023-03-14T15:51:17;8.00;99.90
38568;DHT22;24338;48.280;10.970;2023-03-14T15:53:44;7.80;99.90
38568;DHT22;24338;48.280;10.970;2023-03-14T15:56:13;7.80;99.90
38568;DHT22;24338;48.280;10.970;2023-03-14T15:58:41;7.80;99.90
38568;DHT22;24338;48.280;10.970;2023-03-14T16:01:08;7.80;99.90
38568;DHT22;24338;48.280;10.970;2023-03-14T16:03:35;7.80;99.90
38568;DHT22;24338;48.280;10.970;2023-03-14T16:06:03;7.70;99.90
38568;DHT22;24338;48.280;10.970;2023-03-14T16:08:30;7.70;99.90
38568;DHT22;24338;48.280;10.970;2023-03-14T16:10:57;7.60;99.90
38568;DHT22;24338;48.280;10.970;2023-03-14T16:13:25;7.60;99.90
38568;DHT22;24338;48.280;10.970;2023-03-14T16:15:57;7.60;99.90
38568;DHT22;24338;48.280;10.970;2023-03-14T16:18:24;7.60;99.90
38568;DHT22;24338;48.280;10.970;2023-03-14T16:20:57;7.60;99.90
38568;DHT22;24338;48.280;10.970;2023-03-14T16:23:26;7.60;99.90
38568;DHT22;24338;48.280;10.970;2023-03-14T16:25:55;7.60;99.90
38568;DHT22;24338;48.280;10.970;2023-03-14T16:28:23;7.60;99.90
38568;DHT22;24338;48.280;10.970;2023-03-14T16:30:50;7.50;99.90
38568;DHT22;24338;48.280;10.970;2023-03-14T16:33:17;7.50;99.90
38568;DHT22;24338;48.280;10.970;2023-03-14T16:35:59;7.50;99.90
38568;DHT22;24338;48.280;10.970;2023-03-14T16:38:27;7.50;99.90
38568;DHT22;24338;48.280;10.970;2023-03-14T16:41:15;7.40;99.90
38568;DHT22;24338;48.280;10.970;2023-03-14T16:43:43;7.40;99.90
38568;DHT22;24338;48.280;10.970;2023-03-14T16:46:15;7.30;99.90
38568;DHT22;24338;48.280;10.970;2023-03-14T16:48:43;7.30;99.90
38568;DHT22;24338;48.280;10.970;2023-03-14T16:51:11;7.30;99.90
38568;DHT22;24338;48.280;10.970;2023-03-14T16:53:38;7.30;99.90
38568;DHT22;24338;48.280;10.970;2023-03-14T16:56:05;7.20;99.90
38568;DHT22;24338;48.280;10.970;2023-03-14T16:58:32;7.10;99.90
38568;DHT22;24338;48.280;10.970;2023-03-14T17:00:58;7.10;99.90
38568;DHT22;24338;48.280;10.970;2023-03-14T17:06:03;7.00;99.90
38568;DHT22;24338;48.280;10.970;2023-03-14T17:08:30;6.90;99.90
38568;DHT22;24338;48.280;10.970;2023-03-14T17:10:57;6.80;99.90
38568;DHT22;24338;48.280;10.970;2023-03-14T17:13:24;6.70;99.90